»·PEaware :: N2775 KMHV-KVNY

N2775 :: KMHV-KVNY

FLIGHT INFORMATION

Flight Status: Arrived
Operator: Privately registered:
United States
More flights under this callsign
Pilot: Robert M. (45672)
Aircraft: CESSNA 172 SKYHAWK
(C172)
More flights by this aircraft type
Origin: KMHV Mojave
United States
Destination: KVNY Van Nuys
United States
More flights between these airports :: More routes between these airports
Route:
File this flight plan on PilotEdge
Remarks:
Altitude:
(Current/Filed)
8,500ft
Speed:
(Current/Filed)
0kts
Departed: 27-Nov-23 05:54 PM
Arrived: 27-Nov-23 06:29 PM
Distance/Time
Traveled:
54nm/0:35
Distance/Time
To Go:
Arrived

Flight Plot

Page will automatically refresh every two minutes.

Flight plan parsing failed; only flown route is shown


Map Options




Map Legend


Flown Route
Filed Route
Departure Airport
Arrival Airport
Navaid (VOR, NDB)
Fix

Horizontal Profiles

Position Reports

Time Latitude Longitude Heading Altitude Ground
Speed
27-Nov-23 17:40 35.057130 -118.149956 32 2752ft 0kts
27-Nov-23 17:41 35.057130 -118.149956 32 2752ft 0kts
27-Nov-23 17:42 35.057130 -118.149956 32 2752ft 0kts
27-Nov-23 17:43 35.057130 -118.149956 32 2752ft 0kts
27-Nov-23 17:44 35.057130 -118.149956 32 2752ft 0kts
27-Nov-23 17:45 35.057130 -118.149956 32 2752ft 0kts
27-Nov-23 17:46 35.057528 -118.149573 44 2752ft 8kts
27-Nov-23 17:47 35.056944 -118.147790 154 2747ft 18kts
27-Nov-23 17:48 35.053217 -118.143288 136 2732ft 20kts
27-Nov-23 17:49 35.047619 -118.136614 137 2701ft 30kts
27-Nov-23 17:50 35.044292 -118.131892 61 2683ft 0kts
27-Nov-23 17:51 35.044292 -118.131891 60 2683ft 0kts
27-Nov-23 17:52 35.045182 -118.131403 322 2683ft 3kts
27-Nov-23 17:53 35.050430 -118.137737 318 2717ft 85kts
27-Nov-23 17:54 35.063921 -118.162211 291 3547ft 92kts
27-Nov-23 17:55 35.047398 -118.183086 191 4407ft 93kts
27-Nov-23 17:56 35.022110 -118.186831 175 5105ft 92kts
27-Nov-23 17:57 34.996235 -118.189875 176 5779ft 93kts
27-Nov-23 17:58 34.970378 -118.194877 188 6450ft 97kts
27-Nov-23 17:59 34.945023 -118.205287 190 7042ft 95kts
27-Nov-23 18:00 34.920468 -118.216320 190 7572ft 92kts
27-Nov-23 18:01 34.896934 -118.226817 190 8013ft 88kts
27-Nov-23 18:02 34.873162 -118.237018 190 8317ft 91kts
27-Nov-23 18:03 34.849231 -118.246961 190 8589ft 92kts
27-Nov-23 18:04 34.822269 -118.257846 197 8623ft 109kts
27-Nov-23 18:05 34.793441 -118.272557 196 8618ft 113kts
27-Nov-23 18:06 34.764246 -118.287315 196 8617ft 114kts
27-Nov-23 18:07 34.734946 -118.302153 196 8618ft 113kts
27-Nov-23 18:08 34.705756 -118.316525 193 8618ft 112kts
27-Nov-23 18:09 34.676219 -118.330031 194 8617ft 114kts
27-Nov-23 18:10 34.646438 -118.344189 194 8612ft 115kts
27-Nov-23 18:11 34.616975 -118.358194 194 8612ft 113kts
27-Nov-23 18:12 34.587477 -118.372085 194 8608ft 113kts
27-Nov-23 18:13 34.558248 -118.385802 194 8594ft 111kts
27-Nov-23 18:14 34.529665 -118.399091 194 8584ft 109kts
27-Nov-23 18:15 34.500859 -118.412211 194 8570ft 110kts
27-Nov-23 18:16 34.471695 -118.424967 194 8537ft 111kts
27-Nov-23 18:17 34.442673 -118.437665 194 8523ft 111kts
27-Nov-23 18:18 34.413439 -118.450322 194 8514ft 110kts
27-Nov-23 18:19 34.384596 -118.462691 194 8503ft 109kts
27-Nov-23 18:20 34.353221 -118.475989 195 7964ft 125kts
27-Nov-23 18:21 34.318763 -118.490102 198 7183ft 142kts
27-Nov-23 18:22 34.280084 -118.504467 186 4781ft 145kts
27-Nov-23 18:23 34.239971 -118.505332 175 2946ft 147kts
27-Nov-23 18:24 34.200564 -118.501740 174 2173ft 135kts
27-Nov-23 18:25 34.163820 -118.501201 186 2095ft 132kts
27-Nov-23 18:26 34.158596 -118.487411 2 1838ft 124kts
27-Nov-23 18:27 34.191258 -118.488735 356 1050ft 94kts
27-Nov-23 18:28 34.209067 -118.490325 355 785ft 34kts
27-Nov-23 18:29 34.210258 -118.489500 86 787ft 0kts
27-Nov-23 18:30 34.210379 -118.488387 6 784ft 2kts
27-Nov-23 18:31 34.211345 -118.488498 348 786ft 0kts
27-Nov-23 18:32 34.211345 -118.488498 348 786ft 0kts

Navigation Log

Ident Type
Flight plan parsing failed, navigation log unavailable